Nevada City, CA

2:41 PM PDT on May 29, 2015 (GMT -0700)
Willow Valley Lodge | | Change Station
CLOSE
Current Station
Personal Weather Station
Location: Nevada City, CA
Elevation: 2560 ft
Nearby Weather Stations

Elev 2560 ft 39.27 °N, 121.01 °W | Updated 10 seconds ago

Clear
Clear
81.0 °F
Feels Like 80 °F
N
0.0
Wind Variable Wind from WSW
Gusts 0.0 mph

Today
High -- | Low -- °F
--% Chance of Precip.
Yesterday
High -- | Low -- °F
Precip. -- in
5:40 AM 8:22 PM
Waxing Gibbous, 86% visible
Pressure 30.02 in
Visibility 10.0 miles
Clouds Few 4100 ft
Scattered Clouds 9000 ft
Heat Index 80 °F
Dew Point 46 °F
Humidity 29%
Rainfall 0.00 in
Snow Depth Not available.
UV 2.0 out of 12
Pollen 7.20 out of 12
Air Quality Not available.
Flu Activity Sporadic
METAR KGOO 292135Z AUTO 23005KT 10SM FEW041 SCT090 26/07 A3002 RMK AO1

More Conditions Fewer Conditions

Pressure 30.02 in
Visibility 10.0 miles
Clouds Few 4100 ft
Scattered Clouds 9000 ft
Heat Index 80 °F
Dew Point 46 °F
Humidity 29%
Rainfall 0.00 in
Snow Depth Not available.
UV 2.0 out of 12
Pollen 7.20 out of 12
Air Quality Not available.
Flu Activity Sporadic
METAR KGOO 292135Z AUTO 23005KT 10SM FEW041 SCT090 26/07 A3002 RMK AO1

More Conditions Fewer Conditions

10-Day Weather Forecast

Almanac

Astronomy

May. 29, 2015 Rise Set
Actual Time
Civil Twilight
Nautical Twilight
Astronomical Twilight
Moon
Length of Visible Light
Length of Day
Tomorrow will be .
, % of the Moon is Illuminated

Today's Extremes

State Highs State Lows

Community

WunderPhotos

Upload Photos

1,825,372 photos uploaded!

WunderBlogs® & News

Nearby

Air Quality

  Air Quality AQ Index Pollutant
Not available.

Snow Depth

Station Depth Elevation

Earthquake Activity

City Distance Mag. Time & Date
Minimum magnitude displayed is 2.5.

Coastal Water Temperatures

Place Temperature

Stations

Nearby Weather Stations

Station Location Temp. Windchill Dew Point Humidity Wind Precip. Elev Updated Type